sensor_id;sensor_type;location;lat;lon;timestamp;P1;durP1;ratioP1;P2;durP2;ratioP2
55467;SDS011;41332;42.702;23.200;2023-05-24T00:01:04;4.80;;;4.00;;
55467;SDS011;41332;42.702;23.200;2023-05-24T00:03:31;7.65;;;3.75;;
55467;SDS011;41332;42.702;23.200;2023-05-24T00:05:59;4.50;;;3.78;;
55467;SDS011;41332;42.702;23.200;2023-05-24T00:08:25;4.45;;;4.05;;
55467;SDS011;41332;42.702;23.200;2023-05-24T00:10:50;5.20;;;3.75;;
55467;SDS011;41332;42.702;23.200;2023-05-24T00:13:16;5.35;;;4.05;;
55467;SDS011;41332;42.702;23.200;2023-05-24T00:15:45;12.20;;;3.80;;
55467;SDS011;41332;42.702;23.200;2023-05-24T00:18:10;4.93;;;3.78;;
55467;SDS011;41332;42.702;23.200;2023-05-24T00:20:35;4.38;;;3.67;;
55467;SDS011;41332;42.702;23.200;2023-05-24T00:23:01;10.63;;;3.85;;
55467;SDS011;41332;42.702;23.200;2023-05-24T00:25:26;4.18;;;3.83;;
55467;SDS011;41332;42.702;23.200;2023-05-24T00:27:52;8.20;;;3.50;;
55467;SDS011;41332;42.702;23.200;2023-05-24T00:30:17;4.55;;;4.00;;
55467;SDS011;41332;42.702;23.200;2023-05-24T00:32:42;6.38;;;3.40;;
55467;SDS011;41332;42.702;23.200;2023-05-24T00:35:08;4.90;;;4.43;;
55467;SDS011;41332;42.702;23.200;2023-05-24T00:37:33;4.82;;;4.43;;
55467;SDS011;41332;42.702;23.200;2023-05-24T00:39:59;5.93;;;3.55;;
55467;SDS011;41332;42.702;23.200;2023-05-24T00:42:24;3.67;;;3.38;;
55467;SDS011;41332;42.702;23.200;2023-05-24T00:44:49;9.23;;;4.13;;
55467;SDS011;41332;42.702;23.200;2023-05-24T00:47:15;5.75;;;3.55;;
55467;SDS011;41332;42.702;23.200;2023-05-24T00:49:41;4.65;;;3.53;;
55467;SDS011;41332;42.702;23.200;2023-05-24T00:52:06;7.20;;;5.32;;
55467;SDS011;41332;42.702;23.200;2023-05-24T00:54:33;8.43;;;3.42;;
55467;SDS011;41332;42.702;23.200;2023-05-24T00:56:58;4.88;;;4.13;;
55467;SDS011;41332;42.702;23.200;2023-05-24T00:59:25;4.60;;;4.20;;
55467;SDS011;41332;42.702;23.200;2023-05-24T01:01:51;3.90;;;3.60;;
55467;SDS011;41332;42.702;23.200;2023-05-24T01:04:16;5.28;;;4.63;;
55467;SDS011;41332;42.702;23.200;2023-05-24T01:07:04;14.40;;;4.78;;
55467;SDS011;41332;42.702;23.200;2023-05-24T01:17:39;4.55;;;4.15;;
55467;SDS011;41332;42.702;23.200;2023-05-24T01:20:15;4.35;;;3.95;;
55467;SDS011;41332;42.702;23.200;2023-05-24T01:25:32;7.10;;;3.95;;
55467;SDS011;41332;42.702;23.200;2023-05-24T01:28:09;6.72;;;3.90;;
55467;SDS011;41332;42.702;23.200;2023-05-24T01:30:36;4.55;;;3.80;;
55467;SDS011;41332;42.702;23.200;2023-05-24T01:35:29;11.65;;;3.80;;
55467;SDS011;41332;42.702;23.200;2023-05-24T01:37:54;4.35;;;3.92;;
55467;SDS011;41332;42.702;23.200;2023-05-24T01:40:20;4.28;;;3.85;;
55467;SDS011;41332;42.702;23.200;2023-05-24T01:43:02;4.35;;;3.95;;
55467;SDS011;41332;42.702;23.200;2023-05-24T01:50:44;3.70;;;3.40;;
55467;SDS011;41332;42.702;23.200;2023-05-24T01:53:14;5.07;;;3.85;;
55467;SDS011;41332;42.702;23.200;2023-05-24T01:55:43;4.45;;;3.95;;
55467;SDS011;41332;42.702;23.200;2023-05-24T01:58:12;4.63;;;4.20;;
55467;SDS011;41332;42.702;23.200;2023-05-24T02:00:40;4.13;;;3.40;;
55467;SDS011;41332;42.702;23.200;2023-05-24T02:03:07;5.88;;;4.53;;
55467;SDS011;41332;42.702;23.200;2023-05-24T02:05:33;11.55;;;3.58;;
55467;SDS011;41332;42.702;23.200;2023-05-24T02:07:58;4.18;;;3.88;;
55467;SDS011;41332;42.702;23.200;2023-05-24T02:10:24;3.72;;;3.42;;
55467;SDS011;41332;42.702;23.200;2023-05-24T02:12:49;6.88;;;3.85;;
55467;SDS011;41332;42.702;23.200;2023-05-24T02:15:15;5.43;;;4.93;;
55467;SDS011;41332;42.702;23.200;2023-05-24T02:17:40;5.88;;;4.32;;
55467;SDS011;41332;42.702;23.200;2023-05-24T02:20:07;5.35;;;3.90;;
55467;SDS011;41332;42.702;23.200;2023-05-24T02:22:33;5.05;;;4.57;;
55467;SDS011;41332;42.702;23.200;2023-05-24T02:24:59;4.53;;;4.13;;
55467;SDS011;41332;42.702;23.200;2023-05-24T02:27:24;6.50;;;4.43;;
55467;SDS011;41332;42.702;23.200;2023-05-24T02:29:50;5.97;;;5.05;;
55467;SDS011;41332;42.702;23.200;2023-05-24T02:32:16;4.75;;;4.20;;
55467;SDS011;41332;42.702;23.200;2023-05-24T02:34:42;6.25;;;5.15;;
55467;SDS011;41332;42.702;23.200;2023-05-24T02:37:08;4.30;;;3.80;;
55467;SDS011;41332;42.702;23.200;2023-05-24T02:39:33;4.43;;;4.03;;
55467;SDS011;41332;42.702;23.200;2023-05-24T02:41:59;4.53;;;3.53;;
55467;SDS011;41332;42.702;23.200;2023-05-24T02:44:24;5.82;;;3.65;;
55467;SDS011;41332;42.702;23.200;2023-05-24T02:46:49;5.53;;;3.80;;
55467;SDS011;41332;42.702;23.200;2023-05-24T02:49:15;4.50;;;4.10;;
55467;SDS011;41332;42.702;23.200;2023-05-24T02:51:40;4.88;;;4.28;;
55467;SDS011;41332;42.702;23.200;2023-05-24T02:54:06;5.65;;;4.30;;
55467;SDS011;41332;42.702;23.200;2023-05-24T02:56:31;3.78;;;3.50;;
55467;SDS011;41332;42.702;23.200;2023-05-24T02:58:57;4.35;;;4.05;;
55467;SDS011;41332;42.702;23.200;2023-05-24T03:01:22;4.43;;;3.97;;
55467;SDS011;41332;42.702;23.200;2023-05-24T03:03:48;5.55;;;4.32;;
55467;SDS011;41332;42.702;23.200;2023-05-24T03:06:13;4.00;;;3.70;;
55467;SDS011;41332;42.702;23.200;2023-05-24T03:08:39;6.63;;;4.07;;
55467;SDS011;41332;42.702;23.200;2023-05-24T03:11:05;4.47;;;3.60;;
55467;SDS011;41332;42.702;23.200;2023-05-24T03:13:31;8.55;;;4.10;;
55467;SDS011;41332;42.702;23.200;2023-05-24T03:15:56;7.60;;;4.03;;
55467;SDS011;41332;42.702;23.200;2023-05-24T03:18:22;6.63;;;4.40;;
55467;SDS011;41332;42.702;23.200;2023-05-24T03:20:47;6.20;;;4.65;;
55467;SDS011;41332;42.702;23.200;2023-05-24T03:23:13;6.30;;;3.78;;
55467;SDS011;41332;42.702;23.200;2023-05-24T03:25:39;5.45;;;4.75;;
55467;SDS011;41332;42.702;23.200;2023-05-24T03:28:04;11.20;;;4.38;;
55467;SDS011;41332;42.702;23.200;2023-05-24T03:30:29;6.28;;;3.72;;
55467;SDS011;41332;42.702;23.200;2023-05-24T03:32:55;6.38;;;4.50;;
55467;SDS011;41332;42.702;23.200;2023-05-24T03:35:20;5.82;;;4.47;;
55467;SDS011;41332;42.702;23.200;2023-05-24T03:37:46;5.38;;;4.65;;
55467;SDS011;41332;42.702;23.200;2023-05-24T03:40:11;6.20;;;4.38;;
55467;SDS011;41332;42.702;23.200;2023-05-24T03:42:37;6.88;;;4.30;;
55467;SDS011;41332;42.702;23.200;2023-05-24T03:45:02;5.13;;;4.18;;
55467;SDS011;41332;42.702;23.200;2023-05-24T03:47:29;6.53;;;3.95;;
55467;SDS011;41332;42.702;23.200;2023-05-24T03:49:54;6.45;;;4.65;;
55467;SDS011;41332;42.702;23.200;2023-05-24T03:52:20;4.60;;;4.20;;
55467;SDS011;41332;42.702;23.200;2023-05-24T03:54:45;5.10;;;4.20;;
55467;SDS011;41332;42.702;23.200;2023-05-24T03:57:10;6.20;;;4.03;;
55467;SDS011;41332;42.702;23.200;2023-05-24T03:59:36;4.55;;;4.10;;
55467;SDS011;41332;42.702;23.200;2023-05-24T04:02:01;6.95;;;4.45;;
55467;SDS011;41332;42.702;23.200;2023-05-24T04:04:26;4.90;;;4.00;;
55467;SDS011;41332;42.702;23.200;2023-05-24T04:06:52;5.07;;;4.60;;
55467;SDS011;41332;42.702;23.200;2023-05-24T04:09:18;4.97;;;4.07;;
55467;SDS011;41332;42.702;23.200;2023-05-24T04:11:43;6.25;;;4.35;;
55467;SDS011;41332;42.702;23.200;2023-05-24T04:14:09;4.68;;;4.20;;
55467;SDS011;41332;42.702;23.200;2023-05-24T04:16:34;6.53;;;4.70;;
55467;SDS011;41332;42.702;23.200;2023-05-24T04:19:00;4.93;;;4.50;;
55467;SDS011;41332;42.702;23.200;2023-05-24T04:23:53;5.90;;;4.40;;
55467;SDS011;41332;42.702;23.200;2023-05-24T04:26:19;4.10;;;3.80;;
55467;SDS011;41332;42.702;23.200;2023-05-24T04:28:45;6.50;;;4.18;;
55467;SDS011;41332;42.702;23.200;2023-05-24T04:31:10;7.95;;;4.75;;
55467;SDS011;41332;42.702;23.200;2023-05-24T04:33:36;5.90;;;5.05;;
55467;SDS011;41332;42.702;23.200;2023-05-24T04:36:03;5.18;;;4.68;;
55467;SDS011;41332;42.702;23.200;2023-05-24T04:38:29;5.47;;;4.95;;
55467;SDS011;41332;42.702;23.200;2023-05-24T04:40:56;5.50;;;5.07;;
55467;SDS011;41332;42.702;23.200;2023-05-24T04:43:24;6.28;;;5.50;;
55467;SDS011;41332;42.702;23.200;2023-05-24T04:45:50;14.73;;;6.30;;
55467;SDS011;41332;42.702;23.200;2023-05-24T04:48:18;8.13;;;5.55;;
55467;SDS011;41332;42.702;23.200;2023-05-24T04:50:51;6.20;;;5.60;;
55467;SDS011;41332;42.702;23.200;2023-05-24T04:53:18;6.40;;;5.78;;
55467;SDS011;41332;42.702;23.200;2023-05-24T04:55:45;7.18;;;6.32;;
55467;SDS011;41332;42.702;23.200;2023-05-24T04:58:10;10.20;;;6.53;;
55467;SDS011;41332;42.702;23.200;2023-05-24T05:00:36;6.70;;;5.93;;
55467;SDS011;41332;42.702;23.200;2023-05-24T05:03:01;13.38;;;7.40;;
55467;SDS011;41332;42.702;23.200;2023-05-24T05:05:27;7.75;;;6.20;;
55467;SDS011;41332;42.702;23.200;2023-05-24T05:07:53;7.05;;;6.15;;
55467;SDS011;41332;42.702;23.200;2023-05-24T05:10:18;10.90;;;6.97;;
55467;SDS011;41332;42.702;23.200;2023-05-24T05:12:44;11.93;;;6.22;;
55467;SDS011;41332;42.702;23.200;2023-05-24T05:15:09;7.35;;;6.22;;
55467;SDS011;41332;42.702;23.200;2023-05-24T05:17:34;9.45;;;6.95;;
55467;SDS011;41332;42.702;23.200;2023-05-24T05:20:00;11.93;;;7.30;;
55467;SDS011;41332;42.702;23.200;2023-05-24T05:22:26;11.52;;;7.40;;
55467;SDS011;41332;42.702;23.200;2023-05-24T05:24:51;8.02;;;6.55;;
55467;SDS011;41332;42.702;23.200;2023-05-24T05:27:17;10.07;;;6.28;;
55467;SDS011;41332;42.702;23.200;2023-05-24T05:29:42;10.00;;;6.15;;
55467;SDS011;41332;42.702;23.200;2023-05-24T05:32:08;8.85;;;6.20;;
55467;SDS011;41332;42.702;23.200;2023-05-24T05:34:33;13.40;;;7.35;;
55467;SDS011;41332;42.702;23.200;2023-05-24T05:36:58;17.38;;;6.80;;
55467;SDS011;41332;42.702;23.200;2023-05-24T05:39:24;11.52;;;7.78;;
55467;SDS011;41332;42.702;23.200;2023-05-24T05:41:49;8.27;;;6.82;;
55467;SDS011;41332;42.702;23.200;2023-05-24T05:44:15;11.10;;;7.28;;
55467;SDS011;41332;42.702;23.200;2023-05-24T05:46:41;10.05;;;6.65;;
55467;SDS011;41332;42.702;23.200;2023-05-24T05:49:10;8.10;;;6.40;;
55467;SDS011;41332;42.702;23.200;2023-05-24T05:51:39;8.80;;;6.18;;
55467;SDS011;41332;42.702;23.200;2023-05-24T05:54:05;9.90;;;6.15;;
55467;SDS011;41332;42.702;23.200;2023-05-24T05:56:32;8.18;;;6.60;;
55467;SDS011;41332;42.702;23.200;2023-05-24T05:58:59;8.07;;;5.57;;
55467;SDS011;41332;42.702;23.200;2023-05-24T06:01:25;9.95;;;6.20;;
55467;SDS011;41332;42.702;23.200;2023-05-24T06:03:50;8.23;;;6.75;;
55467;SDS011;41332;42.702;23.200;2023-05-24T06:06:16;8.05;;;5.88;;
55467;SDS011;41332;42.702;23.200;2023-05-24T06:08:41;7.05;;;6.45;;
55467;SDS011;41332;42.702;23.200;2023-05-24T06:11:07;6.47;;;5.57;;
55467;SDS011;41332;42.702;23.200;2023-05-24T06:13:32;9.10;;;5.85;;
55467;SDS011;41332;42.702;23.200;2023-05-24T06:15:58;8.20;;;6.70;;
55467;SDS011;41332;42.702;23.200;2023-05-24T06:18:23;8.20;;;5.82;;
55467;SDS011;41332;42.702;23.200;2023-05-24T06:20:50;10.60;;;7.15;;
55467;SDS011;41332;42.702;23.200;2023-05-24T06:23:16;10.38;;;6.60;;
55467;SDS011;41332;42.702;23.200;2023-05-24T06:25:41;9.27;;;6.30;;
55467;SDS011;41332;42.702;23.200;2023-05-24T06:28:07;11.07;;;7.00;;
55467;SDS011;41332;42.702;23.200;2023-05-24T06:30:33;12.20;;;7.68;;
55467;SDS011;41332;42.702;23.200;2023-05-24T06:32:58;7.80;;;6.97;;
55467;SDS011;41332;42.702;23.200;2023-05-24T06:35:25;7.80;;;6.45;;
55467;SDS011;41332;42.702;23.200;2023-05-24T06:37:50;17.85;;;7.80;;
55467;SDS011;41332;42.702;23.200;2023-05-24T06:40:19;7.25;;;6.53;;
55467;SDS011;41332;42.702;23.200;2023-05-24T06:42:44;9.48;;;6.35;;
55467;SDS011;41332;42.702;23.200;2023-05-24T06:45:10;8.02;;;6.85;;
55467;SDS011;41332;42.702;23.200;2023-05-24T06:47:35;8.55;;;6.20;;
55467;SDS011;41332;42.702;23.200;2023-05-24T06:50:01;6.97;;;6.20;;
55467;SDS011;41332;42.702;23.200;2023-05-24T06:54:53;7.93;;;5.30;;
55467;SDS011;41332;42.702;23.200;2023-05-24T06:57:19;9.13;;;5.55;;
55467;SDS011;41332;42.702;23.200;2023-05-24T06:59:44;7.43;;;5.18;;
55467;SDS011;41332;42.702;23.200;2023-05-24T07:02:09;6.00;;;5.40;;
55467;SDS011;41332;42.702;23.200;2023-05-24T07:04:35;5.60;;;5.03;;
55467;SDS011;41332;42.702;23.200;2023-05-24T07:07:00;7.38;;;5.18;;
55467;SDS011;41332;42.702;23.200;2023-05-24T07:09:27;8.00;;;5.00;;
55467;SDS011;41332;42.702;23.200;2023-05-24T07:11:52;8.48;;;4.47;;
55467;SDS011;41332;42.702;23.200;2023-05-24T07:14:18;7.50;;;4.90;;
55467;SDS011;41332;42.702;23.200;2023-05-24T07:16:43;7.05;;;4.95;;
55467;SDS011;41332;42.702;23.200;2023-05-24T07:19:08;7.00;;;5.47;;
55467;SDS011;41332;42.702;23.200;2023-05-24T07:21:34;8.45;;;5.00;;
55467;SDS011;41332;42.702;23.200;2023-05-24T07:24:00;8.63;;;5.95;;
55467;SDS011;41332;42.702;23.200;2023-05-24T07:26:27;8.30;;;5.97;;
55467;SDS011;41332;42.702;23.200;2023-05-24T07:28:53;5.15;;;4.72;;
55467;SDS011;41332;42.702;23.200;2023-05-24T07:31:18;6.60;;;5.13;;
55467;SDS011;41332;42.702;23.200;2023-05-24T07:33:44;5.88;;;5.28;;
55467;SDS011;41332;42.702;23.200;2023-05-24T07:36:09;8.30;;;4.47;;
55467;SDS011;41332;42.702;23.200;2023-05-24T07:38:34;8.70;;;4.65;;
55467;SDS011;41332;42.702;23.200;2023-05-24T07:41:00;12.15;;;5.45;;
55467;SDS011;41332;42.702;23.200;2023-05-24T07:43:30;4.72;;;3.97;;
55467;SDS011;41332;42.702;23.200;2023-05-24T07:45:55;4.50;;;3.92;;
55467;SDS011;41332;42.702;23.200;2023-05-24T07:48:21;10.95;;;4.72;;
55467;SDS011;41332;42.702;23.200;2023-05-24T07:50:50;4.80;;;3.88;;
55467;SDS011;41332;42.702;23.200;2023-05-24T07:53:16;7.70;;;4.30;;
55467;SDS011;41332;42.702;23.200;2023-05-24T07:55:42;5.70;;;3.92;;
55467;SDS011;41332;42.702;23.200;2023-05-24T07:58:10;5.03;;;3.63;;
55467;SDS011;41332;42.702;23.200;2023-05-24T08:00:36;4.05;;;3.63;;
55467;SDS011;41332;42.702;23.200;2023-05-24T08:03:02;5.60;;;3.67;;
55467;SDS011;41332;42.702;23.200;2023-05-24T08:05:27;4.18;;;3.80;;
55467;SDS011;41332;42.702;23.200;2023-05-24T08:07:53;3.78;;;3.25;;
55467;SDS011;41332;42.702;23.200;2023-05-24T08:10:19;5.18;;;3.75;;
55467;SDS011;41332;42.702;23.200;2023-05-24T08:12:44;2.78;;;2.58;;
55467;SDS011;41332;42.702;23.200;2023-05-24T08:15:10;2.80;;;2.60;;
55467;SDS011;41332;42.702;23.200;2023-05-24T08:17:36;2.63;;;2.42;;
55467;SDS011;41332;42.702;23.200;2023-05-24T08:20:02;3.53;;;3.22;;
55467;SDS011;41332;42.702;23.200;2023-05-24T08:22:31;11.32;;;3.88;;
55467;SDS011;41332;42.702;23.200;2023-05-24T08:24:57;4.20;;;3.63;;
55467;SDS011;41332;42.702;23.200;2023-05-24T08:27:23;4.82;;;3.13;;
55467;SDS011;41332;42.702;23.200;2023-05-24T08:29:48;3.17;;;2.60;;
55467;SDS011;41332;42.702;23.200;2023-05-24T08:32:13;2.97;;;2.67;;
55467;SDS011;41332;42.702;23.200;2023-05-24T08:34:39;3.35;;;3.05;;
55467;SDS011;41332;42.702;23.200;2023-05-24T08:37:04;4.07;;;2.17;;
55467;SDS011;41332;42.702;23.200;2023-05-24T08:39:30;2.72;;;2.53;;
55467;SDS011;41332;42.702;23.200;2023-05-24T08:41:55;15.63;;;6.53;;
55467;SDS011;41332;42.702;23.200;2023-05-24T08:44:22;2.78;;;2.35;;
55467;SDS011;41332;42.702;23.200;2023-05-24T08:46:47;3.72;;;2.95;;
55467;SDS011;41332;42.702;23.200;2023-05-24T08:51:40;3.88;;;2.83;;
55467;SDS011;41332;42.702;23.200;2023-05-24T08:54:07;5.10;;;3.45;;
55467;SDS011;41332;42.702;23.200;2023-05-24T08:56:34;4.40;;;2.28;;
55467;SDS011;41332;42.702;23.200;2023-05-24T08:59:00;3.85;;;3.03;;
55467;SDS011;41332;42.702;23.200;2023-05-24T09:01:26;2.65;;;2.30;;
55467;SDS011;41332;42.702;23.200;2023-05-24T09:03:53;3.72;;;2.33;;
55467;SDS011;41332;42.702;23.200;2023-05-24T09:06:19;5.30;;;2.60;;
55467;SDS011;41332;42.702;23.200;2023-05-24T09:11:16;3.13;;;2.42;;
55467;SDS011;41332;42.702;23.200;2023-05-24T09:13:45;2.50;;;2.30;;
55467;SDS011;41332;42.702;23.200;2023-05-24T09:16:12;3.28;;;2.97;;
55467;SDS011;41332;42.702;23.200;2023-05-24T09:18:39;3.95;;;2.55;;
55467;SDS011;41332;42.702;23.200;2023-05-24T09:21:06;2.92;;;2.55;;
55467;SDS011;41332;42.702;23.200;2023-05-24T09:23:33;2.67;;;2.53;;
55467;SDS011;41332;42.702;23.200;2023-05-24T09:28:31;3.28;;;3.00;;
55467;SDS011;41332;42.702;23.200;2023-05-24T09:30:57;5.47;;;2.90;;
55467;SDS011;41332;42.702;23.200;2023-05-24T09:33:28;3.35;;;2.90;;
55467;SDS011;41332;42.702;23.200;2023-05-24T09:35:58;4.05;;;2.60;;
55467;SDS011;41332;42.702;23.200;2023-05-24T09:41:03;2.72;;;2.53;;
55467;SDS011;41332;42.702;23.200;2023-05-24T09:43:30;3.90;;;2.75;;
55467;SDS011;41332;42.702;23.200;2023-05-24T09:45:58;2.47;;;2.17;;
55467;SDS011;41332;42.702;23.200;2023-05-24T09:48:27;2.70;;;2.45;;
55467;SDS011;41332;42.702;23.200;2023-05-24T09:51:11;3.22;;;2.63;;
55467;SDS011;41332;42.702;23.200;2023-05-24T09:53:38;5.60;;;2.95;;
55467;SDS011;41332;42.702;23.200;2023-05-24T09:56:08;4.45;;;2.85;;
55467;SDS011;41332;42.702;23.200;2023-05-24T09:58:34;3.87;;;2.70;;
55467;SDS011;41332;42.702;23.200;2023-05-24T10:01:04;3.47;;;3.23;;
55467;SDS011;41332;42.702;23.200;2023-05-24T10:03:31;3.20;;;3.00;;
55467;SDS011;41332;42.702;23.200;2023-05-24T10:05:56;3.03;;;2.63;;
55467;SDS011;41332;42.702;23.200;2023-05-24T10:08:22;7.33;;;2.60;;
55467;SDS011;41332;42.702;23.200;2023-05-24T10:10:48;3.93;;;2.57;;
55467;SDS011;41332;42.702;23.200;2023-05-24T10:13:13;2.60;;;2.40;;
55467;SDS011;41332;42.702;23.200;2023-05-24T10:15:41;3.33;;;2.42;;
55467;SDS011;41332;42.702;23.200;2023-05-24T10:18:08;2.75;;;2.50;;
55467;SDS011;41332;42.702;23.200;2023-05-24T10:20:34;3.07;;;2.03;;
55467;SDS011;41332;42.702;23.200;2023-05-24T10:23:00;2.43;;;2.23;;
55467;SDS011;41332;42.702;23.200;2023-05-24T10:25:28;2.50;;;2.30;;
55467;SDS011;41332;42.702;23.200;2023-05-24T10:28:03;2.58;;;2.38;;
55467;SDS011;41332;42.702;23.200;2023-05-24T10:32:58;2.77;;;2.30;;
55467;SDS011;41332;42.702;23.200;2023-05-24T10:35:25;2.53;;;2.33;;
55467;SDS011;41332;42.702;23.200;2023-05-24T10:37:51;5.25;;;2.70;;
55467;SDS011;41332;42.702;23.200;2023-05-24T10:40:18;3.13;;;2.83;;
55467;SDS011;41332;42.702;23.200;2023-05-24T10:42:46;3.08;;;2.65;;
55467;SDS011;41332;42.702;23.200;2023-05-24T10:47:50;2.70;;;2.50;;
55467;SDS011;41332;42.702;23.200;2023-05-24T10:50:16;2.50;;;2.40;;
55467;SDS011;41332;42.702;23.200;2023-05-24T10:55:08;2.53;;;2.22;;
55467;SDS011;41332;42.702;23.200;2023-05-24T10:57:35;3.03;;;2.00;;
55467;SDS011;41332;42.702;23.200;2023-05-24T11:03:02;2.33;;;2.13;;
55467;SDS011;41332;42.702;23.200;2023-05-24T11:10:35;2.58;;;2.38;;
55467;SDS011;41332;42.702;23.200;2023-05-24T11:13:01;10.63;;;4.73;;
55467;SDS011;41332;42.702;23.200;2023-05-24T11:20:36;4.50;;;2.88;;
55467;SDS011;41332;42.702;23.200;2023-05-24T11:23:02;2.70;;;2.50;;
55467;SDS011;41332;42.702;23.200;2023-05-24T11:25:29;2.85;;;2.65;;
55467;SDS011;41332;42.702;23.200;2023-05-24T11:27:57;2.97;;;2.77;;
55467;SDS011;41332;42.702;23.200;2023-05-24T11:30:22;3.55;;;2.50;;
55467;SDS011;41332;42.702;23.200;2023-05-24T11:32:48;4.70;;;2.70;;
55467;SDS011;41332;42.702;23.200;2023-05-24T11:35:14;6.50;;;2.20;;
55467;SDS011;41332;42.702;23.200;2023-05-24T11:37:40;2.67;;;2.40;;
55467;SDS011;41332;42.702;23.200;2023-05-24T11:40:07;3.35;;;2.55;;
55467;SDS011;41332;42.702;23.200;2023-05-24T11:42:36;2.55;;;2.35;;
55467;SDS011;41332;42.702;23.200;2023-05-24T11:45:02;3.70;;;2.35;;
55467;SDS011;41332;42.702;23.200;2023-05-24T11:47:29;4.88;;;3.13;;
55467;SDS011;41332;42.702;23.200;2023-05-24T11:49:54;3.13;;;2.23;;
55467;SDS011;41332;42.702;23.200;2023-05-24T11:52:19;4.60;;;2.93;;
55467;SDS011;41332;42.702;23.200;2023-05-24T11:54:45;3.00;;;2.53;;
55467;SDS011;41332;42.702;23.200;2023-05-24T11:57:11;2.77;;;2.37;;
55467;SDS011;41332;42.702;23.200;2023-05-24T11:59:36;7.35;;;3.92;;
55467;SDS011;41332;42.702;23.200;2023-05-24T12:02:05;3.63;;;2.60;;
55467;SDS011;41332;42.702;23.200;2023-05-24T12:04:32;4.90;;;3.08;;
55467;SDS011;41332;42.702;23.200;2023-05-24T12:06:58;4.93;;;2.83;;
55467;SDS011;41332;42.702;23.200;2023-05-24T12:09:24;2.73;;;2.40;;
55467;SDS011;41332;42.702;23.200;2023-05-24T12:11:50;3.58;;;3.17;;
55467;SDS011;41332;42.702;23.200;2023-05-24T12:14:29;2.67;;;2.42;;
55467;SDS011;41332;42.702;23.200;2023-05-24T12:19:23;3.22;;;2.50;;
55467;SDS011;41332;42.702;23.200;2023-05-24T12:21:54;3.58;;;2.35;;
55467;SDS011;41332;42.702;23.200;2023-05-24T12:24:23;2.58;;;2.35;;
55467;SDS011;41332;42.702;23.200;2023-05-24T12:26:49;3.72;;;2.70;;
55467;SDS011;41332;42.702;23.200;2023-05-24T12:29:15;2.37;;;2.27;;
55467;SDS011;41332;42.702;23.200;2023-05-24T12:31:46;2.80;;;2.60;;
55467;SDS011;41332;42.702;23.200;2023-05-24T12:36:40;5.35;;;2.80;;
55467;SDS011;41332;42.702;23.200;2023-05-24T12:42:02;2.95;;;2.65;;
55467;SDS011;41332;42.702;23.200;2023-05-24T12:47:02;2.42;;;2.22;;
55467;SDS011;41332;42.702;23.200;2023-05-24T12:49:29;2.78;;;2.50;;
55467;SDS011;41332;42.702;23.200;2023-05-24T12:51:55;2.75;;;2.55;;
55467;SDS011;41332;42.702;23.200;2023-05-24T12:54:24;2.80;;;2.43;;
55467;SDS011;41332;42.702;23.200;2023-05-24T12:56:51;3.13;;;2.85;;
55467;SDS011;41332;42.702;23.200;2023-05-24T12:59:18;3.22;;;3.03;;
55467;SDS011;41332;42.702;23.200;2023-05-24T13:01:44;2.53;;;2.33;;
55467;SDS011;41332;42.702;23.200;2023-05-24T13:04:14;3.42;;;2.53;;
55467;SDS011;41332;42.702;23.200;2023-05-24T13:06:41;5.18;;;2.22;;
55467;SDS011;41332;42.702;23.200;2023-05-24T13:09:07;3.15;;;2.60;;
55467;SDS011;41332;42.702;23.200;2023-05-24T13:11:32;2.97;;;2.80;;
55467;SDS011;41332;42.702;23.200;2023-05-24T13:13:58;3.90;;;2.50;;
55467;SDS011;41332;42.702;23.200;2023-05-24T13:16:23;2.50;;;2.10;;
55467;SDS011;41332;42.702;23.200;2023-05-24T13:18:49;2.90;;;2.60;;
55467;SDS011;41332;42.702;23.200;2023-05-24T13:21:15;4.43;;;2.80;;
55467;SDS011;41332;42.702;23.200;2023-05-24T13:23:41;6.20;;;2.67;;
55467;SDS011;41332;42.702;23.200;2023-05-24T13:26:07;3.80;;;2.95;;
55467;SDS011;41332;42.702;23.200;2023-05-24T13:28:33;2.57;;;2.47;;
55467;SDS011;41332;42.702;23.200;2023-05-24T13:30:58;2.53;;;2.33;;
55467;SDS011;41332;42.702;23.200;2023-05-24T13:33:24;3.97;;;2.40;;
55467;SDS011;41332;42.702;23.200;2023-05-24T13:35:50;3.70;;;2.67;;
55467;SDS011;41332;42.702;23.200;2023-05-24T13:38:19;3.33;;;2.30;;
55467;SDS011;41332;42.702;23.200;2023-05-24T13:40:45;4.72;;;2.88;;
55467;SDS011;41332;42.702;23.200;2023-05-24T13:43:11;2.87;;;2.53;;
55467;SDS011;41332;42.702;23.200;2023-05-24T13:45:36;5.80;;;2.77;;
55467;SDS011;41332;42.702;23.200;2023-05-24T13:48:02;5.07;;;2.57;;
55467;SDS011;41332;42.702;23.200;2023-05-24T13:50:29;5.70;;;3.30;;
55467;SDS011;41332;42.702;23.200;2023-05-24T13:52:56;7.35;;;3.10;;
55467;SDS011;41332;42.702;23.200;2023-05-24T13:55:22;6.00;;;2.97;;
55467;SDS011;41332;42.702;23.200;2023-05-24T13:57:48;4.57;;;2.70;;
55467;SDS011;41332;42.702;23.200;2023-05-24T14:00:13;7.43;;;3.73;;
55467;SDS011;41332;42.702;23.200;2023-05-24T14:02:39;3.33;;;2.47;;
55467;SDS011;41332;42.702;23.200;2023-05-24T14:05:04;3.80;;;3.17;;
55467;SDS011;41332;42.702;23.200;2023-05-24T14:07:30;3.17;;;2.65;;
55467;SDS011;41332;42.702;23.200;2023-05-24T14:09:55;6.90;;;3.05;;
55467;SDS011;41332;42.702;23.200;2023-05-24T14:12:23;4.43;;;3.78;;
55467;SDS011;41332;42.702;23.200;2023-05-24T14:14:49;6.55;;;2.92;;
55467;SDS011;41332;42.702;23.200;2023-05-24T14:17:14;2.92;;;2.72;;
55467;SDS011;41332;42.702;23.200;2023-05-24T14:19:39;2.17;;;2.03;;
55467;SDS011;41332;42.702;23.200;2023-05-24T14:22:05;4.05;;;2.92;;
55467;SDS011;41332;42.702;23.200;2023-05-24T14:24:31;3.65;;;3.35;;
55467;SDS011;41332;42.702;23.200;2023-05-24T14:26:56;6.88;;;3.72;;
55467;SDS011;41332;42.702;23.200;2023-05-24T14:29:21;4.65;;;2.55;;
55467;SDS011;41332;42.702;23.200;2023-05-24T14:31:47;4.38;;;2.80;;
55467;SDS011;41332;42.702;23.200;2023-05-24T14:34:13;3.87;;;3.03;;
55467;SDS011;41332;42.702;23.200;2023-05-24T14:36:38;3.05;;;2.85;;
55467;SDS011;41332;42.702;23.200;2023-05-24T14:39:05;3.00;;;2.70;;
55467;SDS011;41332;42.702;23.200;2023-05-24T14:41:31;3.78;;;3.47;;
55467;SDS011;41332;42.702;23.200;2023-05-24T14:43:58;2.65;;;2.45;;
55467;SDS011;41332;42.702;23.200;2023-05-24T14:46:24;3.40;;;2.78;;
55467;SDS011;41332;42.702;23.200;2023-05-24T14:48:49;2.70;;;2.50;;
55467;SDS011;41332;42.702;23.200;2023-05-24T14:51:14;3.55;;;3.28;;
55467;SDS011;41332;42.702;23.200;2023-05-24T14:53:40;5.65;;;2.45;;
55467;SDS011;41332;42.702;23.200;2023-05-24T14:56:05;3.00;;;2.38;;
55467;SDS011;41332;42.702;23.200;2023-05-24T14:58:33;4.22;;;2.97;;
55467;SDS011;41332;42.702;23.200;2023-05-24T15:00:58;5.40;;;3.20;;
55467;SDS011;41332;42.702;23.200;2023-05-24T15:03:24;2.92;;;2.47;;
55467;SDS011;41332;42.702;23.200;2023-05-24T15:05:49;3.47;;;3.15;;
55467;SDS011;41332;42.702;23.200;2023-05-24T15:08:15;6.03;;;2.65;;
55467;SDS011;41332;42.702;23.200;2023-05-24T15:10:40;2.47;;;2.28;;
55467;SDS011;41332;42.702;23.200;2023-05-24T15:13:08;3.85;;;2.75;;
55467;SDS011;41332;42.702;23.200;2023-05-24T15:15:33;2.83;;;2.55;;
55467;SDS011;41332;42.702;23.200;2023-05-24T15:17:59;3.40;;;2.97;;
55467;SDS011;41332;42.702;23.200;2023-05-24T15:20:24;6.70;;;3.10;;
55467;SDS011;41332;42.702;23.200;2023-05-24T15:22:49;3.20;;;3.00;;
55467;SDS011;41332;42.702;23.200;2023-05-24T15:25:15;3.92;;;2.85;;
55467;SDS011;41332;42.702;23.200;2023-05-24T15:27:40;4.35;;;2.25;;
55467;SDS011;41332;42.702;23.200;2023-05-24T15:30:06;2.72;;;2.30;;
55467;SDS011;41332;42.702;23.200;2023-05-24T15:32:32;3.05;;;2.72;;